Time;durP1;ratioP1;P1;durP2;ratioP2;P2;SDS_P1;SDS_P2;PMS_P1;PMS_P2;Temp;Humidity;BMP_temperature;BMP_pressure;BME280_temperature;BME280_humidity;BME280_pressure;Samples;Min_cycle;Max_cycle;Signal;HPM_P1;HPM_P2
2022/12/31 00:01:05;;;;;;;1.45;1.05;;;;;;;;;;5018647;28;20566;-86
2022/12/31 00:03:31;;;;;;;1.50;1.00;;;;;;;;;;5018301;28;20088;-86
2022/12/31 00:05:56;;;;;;;2.10;1.10;;;;;;;;;;5019032;28;20042;-86
2022/12/31 00:08:22;;;;;;;2.22;1.17;;;;;;;;;;5025932;28;20018;-85
2022/12/31 00:10:48;;;;;;;1.73;1.20;;;;;;;;;;5024277;28;20050;-87
2022/12/31 00:13:13;;;;;;;1.50;1.08;;;;;;;;;;5005387;28;20072;-87
2022/12/31 00:15:40;;;;;;;2.00;1.25;;;;;;;;;;5019016;28;20061;-85
2022/12/31 00:18:06;;;;;;;2.30;1.30;;;;;;;;;;5021003;28;20462;-85
2022/12/31 00:20:32;;;;;;;1.38;0.93;;;;;;;;;;5019341;28;20487;-86
2022/12/31 00:22:57;;;;;;;2.45;1.25;;;;;;;;;;5019549;28;20034;-85
2022/12/31 00:25:23;;;;;;;1.75;1.05;;;;;;;;;;5018671;28;20037;-86
2022/12/31 00:27:48;;;;;;;2.95;1.20;;;;;;;;;;5018746;28;20029;-87
2022/12/31 00:30:14;;;;;;;1.40;1.00;;;;;;;;;;5018952;28;20141;-85
2022/12/31 00:32:39;;;;;;;2.42;1.25;;;;;;;;;;5019284;28;20038;-85
2022/12/31 00:35:05;;;;;;;1.38;1.00;;;;;;;;;;5019818;28;20084;-86
2022/12/31 00:37:31;;;;;;;3.55;1.20;;;;;;;;;;5019232;28;20041;-85
2022/12/31 00:39:56;;;;;;;2.28;1.25;;;;;;;;;;5019083;28;20116;-87
2022/12/31 00:42:22;;;;;;;2.13;1.15;;;;;;;;;;5019485;28;20031;-86
2022/12/31 00:44:47;;;;;;;2.80;1.40;;;;;;;;;;5018759;28;20121;-87
2022/12/31 00:47:13;;;;;;;8.25;1.10;;;;;;;;;;5018010;28;20038;-85
2022/12/31 00:49:38;;;;;;;1.48;0.95;;;;;;;;;;5019741;28;20034;-87
2022/12/31 00:52:04;;;;;;;1.75;1.10;;;;;;;;;;5019737;28;20489;-87
2022/12/31 00:54:29;;;;;;;1.80;1.20;;;;;;;;;;5019783;28;20049;-87
2022/12/31 00:56:55;;;;;;;1.48;1.00;;;;;;;;;;5019527;28;20031;-87
2022/12/31 00:59:20;;;;;;;2.03;1.00;;;;;;;;;;5020358;28;20037;-88
2022/12/31 01:01:46;;;;;;;1.75;1.15;;;;;;;;;;5020387;28;20040;-87
2022/12/31 01:04:15;;;;;;;2.28;1.10;;;;;;;;;;5018643;28;20406;-87
2022/12/31 01:06:42;;;;;;;1.90;1.10;;;;;;;;;;5020161;28;20034;-88
2022/12/31 01:09:09;;;;;;;1.65;0.90;;;;;;;;;;5019144;28;20125;-85
2022/12/31 01:11:35;;;;;;;1.42;1.05;;;;;;;;;;4999953;28;20048;-87
2022/12/31 01:14:02;;;;;;;2.95;1.00;;;;;;;;;;5018324;28;20517;-86
2022/12/31 01:16:31;;;;;;;2.10;1.15;;;;;;;;;;5014572;28;20065;-86
2022/12/31 01:18:58;;;;;;;1.85;1.00;;;;;;;;;;5021411;28;20033;-85
2022/12/31 01:21:24;;;;;;;1.77;1.00;;;;;;;;;;5019692;28;20133;-85
2022/12/31 01:23:50;;;;;;;1.48;1.00;;;;;;;;;;5014428;28;20463;-85
2022/12/31 01:26:17;;;;;;;1.67;0.90;;;;;;;;;;5014395;28;20038;-85
2022/12/31 01:28:43;;;;;;;2.00;0.93;;;;;;;;;;5014757;28;20534;-87
2022/12/31 01:31:13;;;;;;;2.15;1.10;;;;;;;;;;5016194;28;20064;-85
2022/12/31 01:33:40;;;;;;;3.78;1.10;;;;;;;;;;5015296;28;20103;-86
2022/12/31 01:36:27;;;;;;;1.50;1.00;;;;;;;;;;5015301;28;20499;-86
2022/12/31 01:38:55;;;;;;;2.20;1.30;;;;;;;;;;5015986;28;20056;-86
2022/12/31 01:41:24;;;;;;;1.10;0.88;;;;;;;;;;5014873;28;20123;-85
2022/12/31 01:43:55;;;;;;;1.70;1.10;;;;;;;;;;5014557;28;20076;-87
2022/12/31 01:46:23;;;;;;;1.30;0.90;;;;;;;;;;5015352;28;20042;-87
2022/12/31 01:48:51;;;;;;;0.88;0.77;;;;;;;;;;5014186;28;20569;-85
2022/12/31 01:51:18;;;;;;;1.67;0.90;;;;;;;;;;5014667;28;20680;-85
2022/12/31 01:53:44;;;;;;;1.27;0.90;;;;;;;;;;5016509;28;20030;-86
2022/12/31 01:56:10;;;;;;;2.28;0.98;;;;;;;;;;5015349;28;20394;-85
2022/12/31 01:58:41;;;;;;;1.77;0.98;;;;;;;;;;5016178;28;20538;-84
2022/12/31 02:01:08;;;;;;;2.00;1.30;;;;;;;;;;5014586;28;20033;-86
2022/12/31 02:03:34;;;;;;;1.80;1.00;;;;;;;;;;5020272;28;20065;-86
2022/12/31 02:06:08;;;;;;;2.15;0.88;;;;;;;;;;5023386;28;20046;-84
2022/12/31 02:08:35;;;;;;;1.65;0.73;;;;;;;;;;5016627;28;20402;-86
2022/12/31 02:11:00;;;;;;;1.33;0.80;;;;;;;;;;5014965;28;20053;-85
2022/12/31 02:13:26;;;;;;;1.17;0.88;;;;;;;;;;5017443;28;20042;-85
2022/12/31 02:16:18;;;;;;;2.00;1.00;;;;;;;;;;4998168;28;20041;-87
2022/12/31 02:19:09;;;;;;;1.20;0.90;;;;;;;;;;5015218;28;20042;-87
2022/12/31 02:21:53;;;;;;;0.90;0.80;;;;;;;;;;5014347;28;20042;-85
2022/12/31 02:24:27;;;;;;;1.23;0.90;;;;;;;;;;5013236;28;20041;-85
2022/12/31 02:27:09;;;;;;;1.30;0.90;;;;;;;;;;4996105;28;20033;-87
2022/12/31 02:29:59;;;;;;;1.80;0.90;;;;;;;;;;5016054;28;20513;-84
2022/12/31 02:32:42;;;;;;;1.10;0.80;;;;;;;;;;5001253;28;20049;-86
2022/12/31 02:35:11;;;;;;;;;;;;;;;;;;5013800;28;20483;-84
2022/12/31 02:37:40;;;;;;;1.70;1.00;;;;;;;;;;5014297;28;19915;-84
2022/12/31 02:40:09;;;;;;;1.80;1.00;;;;;;;;;;5015215;28;20402;-88
2022/12/31 02:42:35;;;;;;;1.40;0.90;;;;;;;;;;5015451;28;20038;-86
2022/12/31 02:45:00;;;;;;;3.10;1.00;;;;;;;;;;5014705;28;20049;-86
2022/12/31 02:47:32;;;;;;;1.25;0.90;;;;;;;;;;4997376;28;20137;-88
2022/12/31 02:50:30;;;;;;;1.30;0.88;;;;;;;;;;5015585;28;20037;-86
2022/12/31 02:53:20;;;;;;;1.42;0.90;;;;;;;;;;5014784;28;20509;-87
2022/12/31 02:56:06;;;;;;;1.17;0.98;;;;;;;;;;5013152;28;20038;-87
2022/12/31 03:04:33;;;;;;;2.15;1.20;;;;;;;;;;5013047;28;20080;-87
2022/12/31 03:07:09;;;;;;;2.00;1.00;;;;;;;;;;5015824;28;20038;-86
2022/12/31 03:09:36;;;;;;;1.63;1.10;;;;;;;;;;5014068;28;20044;-84
2022/12/31 03:14:48;;;;;;;1.42;1.08;;;;;;;;;;5017114;28;20030;-86
2022/12/31 03:17:14;;;;;;;1.58;1.00;;;;;;;;;;5013886;28;20744;-87
2022/12/31 03:22:26;;;;;;;0.98;0.73;;;;;;;;;;5013069;28;20116;-85
2022/12/31 03:27:44;;;;;;;0.98;0.70;;;;;;;;;;5012730;28;20029;-85
2022/12/31 03:30:11;;;;;;;1.15;1.05;;;;;;;;;;5011469;28;20030;-86
2022/12/31 03:32:37;;;;;;;1.17;0.90;;;;;;;;;;5011580;28;20386;-87
2022/12/31 03:35:03;;;;;;;1.33;0.98;;;;;;;;;;5011274;28;20490;-86
2022/12/31 03:37:29;;;;;;;2.08;1.15;;;;;;;;;;5012653;28;20030;-86
2022/12/31 03:39:54;;;;;;;1.90;1.00;;;;;;;;;;5012740;28;20030;-85
2022/12/31 03:42:20;;;;;;;1.27;0.90;;;;;;;;;;5007169;28;20525;-86
2022/12/31 03:44:45;;;;;;;1.30;1.00;;;;;;;;;;5012662;28;20038;-85
2022/12/31 03:47:11;;;;;;;1.50;1.10;;;;;;;;;;5011934;28;20044;-84
2022/12/31 03:49:36;;;;;;;1.15;0.82;;;;;;;;;;5013401;28;20072;-87
2022/12/31 03:52:02;;;;;;;2.58;0.90;;;;;;;;;;5013598;28;20030;-85
2022/12/31 03:54:28;;;;;;;1.10;0.90;;;;;;;;;;5011472;28;20502;-85
2022/12/31 03:56:53;;;;;;;1.40;0.90;;;;;;;;;;5011936;28;20034;-86
2022/12/31 03:59:19;;;;;;;1.27;0.80;;;;;;;;;;5012123;28;20053;-87
2022/12/31 04:01:44;;;;;;;1.77;1.00;;;;;;;;;;5013069;28;20038;-86
2022/12/31 04:04:10;;;;;;;2.03;0.90;;;;;;;;;;5011880;28;20121;-86
2022/12/31 04:06:35;;;;;;;1.60;1.00;;;;;;;;;;5012846;28;20030;-86
2022/12/31 04:09:00;;;;;;;1.83;1.08;;;;;;;;;;5013872;28;20410;-86
2022/12/31 04:11:26;;;;;;;0.80;0.80;;;;;;;;;;5014415;28;20052;-86
2022/12/31 04:13:51;;;;;;;1.75;0.90;;;;;;;;;;5014205;28;20042;-87
2022/12/31 04:16:17;;;;;;;1.58;1.10;;;;;;;;;;5011809;28;20041;-86
2022/12/31 04:18:42;;;;;;;1.45;0.80;;;;;;;;;;5011168;28;20111;-86
2022/12/31 04:21:08;;;;;;;0.93;0.75;;;;;;;;;;5012200;28;20049;-85
2022/12/31 04:23:33;;;;;;;0.95;0.70;;;;;;;;;;5011949;28;20042;-86
2022/12/31 04:25:59;;;;;;;0.88;0.75;;;;;;;;;;5011566;28;20038;-86
2022/12/31 04:28:24;;;;;;;1.50;0.80;;;;;;;;;;5012203;28;20479;-85
2022/12/31 04:30:50;;;;;;;1.85;1.10;;;;;;;;;;5012068;28;20038;-85
2022/12/31 04:33:15;;;;;;;1.23;0.75;;;;;;;;;;4994344;28;20030;-86
2022/12/31 04:35:41;;;;;;;1.05;0.80;;;;;;;;;;5010300;28;20037;-86
2022/12/31 04:38:06;;;;;;;0.80;0.70;;;;;;;;;;5012101;28;20034;-85
2022/12/31 04:40:31;;;;;;;0.75;0.70;;;;;;;;;;4994515;28;20550;-85
2022/12/31 04:42:57;;;;;;;3.42;0.70;;;;;;;;;;5011921;28;20038;-87
2022/12/31 04:45:22;;;;;;;1.88;1.30;;;;;;;;;;4994755;28;20172;-87
2022/12/31 04:47:48;;;;;;;1.00;0.80;;;;;;;;;;5015655;28;20057;-86
2022/12/31 04:50:13;;;;;;;1.13;0.85;;;;;;;;;;4997875;28;20050;-87
2022/12/31 04:52:39;;;;;;;1.50;1.10;;;;;;;;;;5027240;28;20384;-85
2022/12/31 04:55:05;;;;;;;1.08;0.77;;;;;;;;;;5016120;28;20030;-87
2022/12/31 04:57:30;;;;;;;1.30;0.90;;;;;;;;;;5016651;28;20034;-86
2022/12/31 04:59:55;;;;;;;1.20;0.88;;;;;;;;;;5016734;28;20053;-85
2022/12/31 05:02:21;;;;;;;1.40;1.00;;;;;;;;;;5016732;28;20403;-85
2022/12/31 05:04:46;;;;;;;2.03;1.15;;;;;;;;;;5014773;28;20042;-85
2022/12/31 05:07:12;;;;;;;1.73;0.90;;;;;;;;;;5015606;28;20062;-86
2022/12/31 05:09:37;;;;;;;1.45;1.00;;;;;;;;;;5017488;28;20038;-85
2022/12/31 05:12:03;;;;;;;1.80;0.90;;;;;;;;;;5016671;28;20044;-87
2022/12/31 05:14:28;;;;;;;1.40;0.90;;;;;;;;;;5039354;23;20458;-85
2022/12/31 05:16:57;;;;;;;1.48;0.75;;;;;;;;;;5029360;28;20112;-86
2022/12/31 05:19:22;;;;;;;1.23;0.70;;;;;;;;;;5030765;28;20072;-87
2022/12/31 05:22:27;;;;;;;1.02;0.60;;;;;;;;;;5011172;28;20038;-87
2022/12/31 05:24:33;;;;;;;0.90;0.70;;;;;;;;;;5028903;28;20165;-87
2022/12/31 05:26:59;;;;;;;1.45;0.73;;;;;;;;;;5028060;28;20033;-87
2022/12/31 05:29:24;;;;;;;1.33;0.75;;;;;;;;;;5027608;28;20034;-87
2022/12/31 05:31:51;;;;;;;1.05;0.90;;;;;;;;;;5012483;28;20033;-86
2022/12/31 05:34:17;;;;;;;2.65;1.38;;;;;;;;;;5028963;28;20088;-86
2022/12/31 05:36:42;;;;;;;1.38;0.95;;;;;;;;;;5027905;28;20180;-88
2022/12/31 05:39:08;;;;;;;2.10;1.70;;;;;;;;;;5012425;28;20065;-83
2022/12/31 05:41:33;;;;;;;2.00;1.30;;;;;;;;;;5011489;28;20030;-85
2022/12/31 05:43:58;;;;;;;2.13;1.30;;;;;;;;;;5024701;28;20069;-84
2022/12/31 05:46:24;;;;;;;3.22;2.30;;;;;;;;;;5025228;28;20033;-84
2022/12/31 05:48:49;;;;;;;2.75;1.90;;;;;;;;;;5009474;28;20133;-84
2022/12/31 05:51:15;;;;;;;4.57;3.08;;;;;;;;;;5025016;28;20040;-88
2022/12/31 05:53:40;;;;;;;8.43;4.40;;;;;;;;;;5025670;28;20033;-84
2022/12/31 05:56:09;;;;;;;4.65;2.83;;;;;;;;;;5008435;28;20033;-83
2022/12/31 05:58:34;;;;;;;3.33;2.20;;;;;;;;;;5023281;28;20069;-84
2022/12/31 06:00:59;;;;;;;1.80;1.33;;;;;;;;;;5026945;28;20518;-85
2022/12/31 06:03:25;;;;;;;3.42;1.45;;;;;;;;;;5024323;28;20038;-88
2022/12/31 06:05:53;;;;;;;1.27;0.80;;;;;;;;;;5025121;28;20038;-87
2022/12/31 06:08:19;;;;;;;3.38;0.93;;;;;;;;;;5009174;28;20037;-87
2022/12/31 06:10:44;;;;;;;1.42;0.80;;;;;;;;;;5008651;28;20044;-84
2022/12/31 06:13:10;;;;;;;0.77;0.75;;;;;;;;;;5023503;28;20095;-86
2022/12/31 06:15:37;;;;;;;2.00;0.85;;;;;;;;;;5007213;28;20052;-86
2022/12/31 06:18:03;;;;;;;1.38;0.98;;;;;;;;;;5024199;28;20033;-84
2022/12/31 06:20:29;;;;;;;3.63;0.80;;;;;;;;;;5025496;28;20042;-85
2022/12/31 06:22:54;;;;;;;2.58;0.90;;;;;;;;;;5007646;28;20040;-85
2022/12/31 06:25:20;;;;;;;0.98;0.80;;;;;;;;;;5023867;28;20038;-84
2022/12/31 06:27:45;;;;;;;1.35;0.82;;;;;;;;;;5023117;28;20542;-83
2022/12/31 06:30:11;;;;;;;1.35;0.88;;;;;;;;;;5025073;28;20054;-84
2022/12/31 06:32:38;;;;;;;2.63;0.90;;;;;;;;;;5024231;28;20045;-84
2022/12/31 06:35:04;;;;;;;1.10;0.90;;;;;;;;;;5024669;28;20040;-84
2022/12/31 06:37:29;;;;;;;1.30;0.88;;;;;;;;;;5023637;28;20072;-85
2022/12/31 06:39:55;;;;;;;0.82;0.77;;;;;;;;;;5025012;28;20037;-84
2022/12/31 06:42:20;;;;;;;0.95;0.75;;;;;;;;;;5007290;28;20038;-85
2022/12/31 06:44:46;;;;;;;1.88;0.98;;;;;;;;;;5023135;28;20042;-84
2022/12/31 06:47:11;;;;;;;1.15;0.88;;;;;;;;;;5016285;28;20057;-84
2022/12/31 06:49:39;;;;;;;1.65;0.90;;;;;;;;;;4988084;28;20050;-84
2022/12/31 06:52:05;;;;;;;1.15;0.80;;;;;;;;;;5001886;28;20030;-84
2022/12/31 06:54:34;;;;;;;1.63;0.98;;;;;;;;;;5013981;28;20104;-85
2022/12/31 06:57:00;;;;;;;3.92;0.90;;;;;;;;;;5023283;28;20042;-84
2022/12/31 06:59:28;;;;;;;1.38;0.90;;;;;;;;;;5023934;28;20121;-85
2022/12/31 07:02:01;;;;;;;1.23;1.00;;;;;;;;;;5022827;28;20045;-84
2022/12/31 07:04:27;;;;;;;;;;;;;;;;;;5022424;28;20053;-86
2022/12/31 07:07:03;;;;;;;1.40;1.05;;;;;;;;;;5020654;28;19913;-85
2022/12/31 07:09:47;;;;;;;3.22;0.95;;;;;;;;;;5006941;28;20052;-85
2022/12/31 07:12:27;;;;;;;2.35;1.00;;;;;;;;;;5008448;28;20034;-84
2022/12/31 07:14:58;;;;;;;1.40;1.00;;;;;;;;;;5008525;28;20044;-84
2022/12/31 07:17:36;;;;;;;1.42;0.90;;;;;;;;;;5025261;28;20487;-86
2022/12/31 07:20:08;;;;;;;1.83;1.10;;;;;;;;;;5023364;28;20097;-87
2022/12/31 07:22:34;;;;;;;1.10;0.90;;;;;;;;;;5017895;28;20414;-86
2022/12/31 07:25:00;;;;;;;1.23;0.80;;;;;;;;;;5015436;28;20025;-87
2022/12/31 07:27:51;;;;;;;0.88;0.85;;;;;;;;;;5016400;28;20057;-86
2022/12/31 07:30:21;;;;;;;1.02;0.93;;;;;;;;;;5016486;28;20407;-85
2022/12/31 07:33:20;;;;;;;1.27;0.80;;;;;;;;;;5018612;28;20018;-84
2022/12/31 07:36:04;;;;;;;0.75;0.70;;;;;;;;;;5019929;28;20083;-86
2022/12/31 07:38:46;;;;;;;0.95;0.80;;;;;;;;;;5000545;28;20096;-84
2022/12/31 07:41:30;;;;;;;1.95;0.93;;;;;;;;;;5018561;28;20038;-84
2022/12/31 07:44:02;;;;;;;;;;;;;;;;;;5022981;28;20034;-85
2022/12/31 07:46:51;;;;;;;1.23;0.88;;;;;;;;;;5022889;28;19913;-85
2022/12/31 07:49:16;;;;;;;1.13;0.90;;;;;;;;;;5023312;28;20036;-87
2022/12/31 07:51:42;;;;;;;0.82;0.70;;;;;;;;;;5008824;28;20121;-85
2022/12/31 07:54:08;;;;;;;2.75;1.00;;;;;;;;;;5028656;28;20030;-86
2022/12/31 07:56:33;;;;;;;1.25;0.80;;;;;;;;;;5023402;28;20049;-86
2022/12/31 07:59:21;;;;;;;3.08;1.08;;;;;;;;;;5022565;28;20125;-87
2022/12/31 08:01:52;;;;;;;1.50;1.10;;;;;;;;;;5007793;28;20072;-85
2022/12/31 08:04:47;;;;;;;1.20;1.00;;;;;;;;;;5023411;28;20148;-85
2022/12/31 08:07:28;;;;;;;3.97;0.93;;;;;;;;;;5019031;28;20049;-83
2022/12/31 08:10:12;;;;;;;3.28;0.90;;;;;;;;;;5017070;28;20042;-83
2022/12/31 08:12:38;;;;;;;;;;;;;;;;;;5000245;28;20380;-86
2022/12/31 08:15:16;;;;;;;1.02;0.70;;;;;;;;;;5018223;28;19921;-84
2022/12/31 08:17:41;;;;;;;1.10;0.80;;;;;;;;;;5005288;28;20033;-86
2022/12/31 08:20:12;;;;;;;0.82;0.80;;;;;;;;;;5022073;28;20417;-84
2022/12/31 08:22:49;;;;;;;0.95;0.80;;;;;;;;;;5025902;28;20046;-86
2022/12/31 08:25:27;;;;;;;3.25;1.10;;;;;;;;;;5019700;28;20034;-85
2022/12/31 08:28:27;;;;;;;2.55;0.90;;;;;;;;;;5009526;28;20509;-86
2022/12/31 08:31:11;;;;;;;1.00;0.90;;;;;;;;;;5010605;28;20045;-85
2022/12/31 08:33:47;;;;;;;;;;;;;;;;;;5009957;28;20042;-87
2022/12/31 08:36:40;;;;;;;1.95;1.17;;;;;;;;;;5026925;28;19913;-86
2022/12/31 08:39:18;;;;;;;2.40;1.10;;;;;;;;;;5025276;28;20045;-85
2022/12/31 08:41:48;;;;;;;4.50;1.20;;;;;;;;;;5027179;28;20125;-85
2022/12/31 08:44:38;;;;;;;3.85;1.30;;;;;;;;;;5024968;28;20092;-85
2022/12/31 08:47:37;;;;;;;1.02;0.75;;;;;;;;;;5026812;28;20438;-86
2022/12/31 08:50:03;;;;;;;2.25;0.88;;;;;;;;;;5024404;28;20058;-85
2022/12/31 08:52:29;;;;;;;0.73;0.63;;;;;;;;;;5023968;28;20064;-83
2022/12/31 08:54:55;;;;;;;2.20;0.80;;;;;;;;;;5006047;28;20038;-84
2022/12/31 08:57:30;;;;;;;1.92;0.93;;;;;;;;;;5007448;28;20033;-87
2022/12/31 09:00:12;;;;;;;1.60;0.90;;;;;;;;;;5025300;28;20034;-85
2022/12/31 09:02:50;;;;;;;2.83;1.05;;;;;;;;;;5023553;28;20033;-84
2022/12/31 09:05:57;;;;;;;1.20;0.90;;;;;;;;;;5023454;28;20041;-85
2022/12/31 09:08:40;;;;;;;1.15;0.90;;;;;;;;;;5024466;28;20068;-86
2022/12/31 09:11:06;;;;;;;2.08;1.30;;;;;;;;;;5026856;28;20726;-86
2022/12/31 09:14:17;;;;;;;2.22;1.15;;;;;;;;;;5025697;28;20034;-87
2022/12/31 09:17:01;;;;;;;3.30;1.23;;;;;;;;;;5025963;28;20056;-85
2022/12/31 09:19:26;;;;;;;1.20;0.70;;;;;;;;;;5007987;28;20069;-85
2022/12/31 09:21:52;;;;;;;5.43;2.00;;;;;;;;;;5024042;28;20045;-86
2022/12/31 09:24:18;;;;;;;1.70;1.30;;;;;;;;;;5024018;28;20061;-86
2022/12/31 09:26:46;;;;;;;1.33;0.90;;;;;;;;;;5023759;28;20026;-87
2022/12/31 09:29:27;;;;;;;1.40;0.95;;;;;;;;;;5022362;28;20056;-86
2022/12/31 09:32:13;;;;;;;1.15;0.98;;;;;;;;;;5021609;28;20042;-86
2022/12/31 09:34:47;;;;;;;0.77;0.73;;;;;;;;;;5022529;28;20030;-85
2022/12/31 09:37:19;;;;;;;1.65;1.00;;;;;;;;;;5023843;28;20084;-86
2022/12/31 09:39:46;;;;;;;1.75;1.00;;;;;;;;;;5022586;28;20073;-86
2022/12/31 09:42:50;;;;;;;1.50;0.90;;;;;;;;;;5005126;28;20030;-85
2022/12/31 09:45:58;;;;;;;1.73;1.10;;;;;;;;;;5021191;28;20038;-84
2022/12/31 09:48:34;;;;;;;2.53;1.48;;;;;;;;;;4966294;28;20102;-86
2022/12/31 09:51:17;;;;;;;1.60;1.15;;;;;;;;;;5016747;28;20069;-85
2022/12/31 09:54:13;;;;;;;1.67;1.00;;;;;;;;;;5006101;28;20523;-84
2022/12/31 09:56:46;;;;;;;1.42;1.00;;;;;;;;;;5023847;28;20288;-86
2022/12/31 09:59:34;;;;;;;1.92;1.42;;;;;;;;;;5024089;28;20044;-84
2022/12/31 10:02:11;;;;;;;3.45;1.08;;;;;;;;;;5007039;28;20042;-85
2022/12/31 10:05:14;;;;;;;1.45;0.90;;;;;;;;;;5025935;28;20097;-86
2022/12/31 10:07:42;;;;;;;1.83;0.82;;;;;;;;;;5025175;28;20037;-85
2022/12/31 10:10:33;;;;;;;1.40;0.90;;;;;;;;;;5008539;28;20053;-84
2022/12/31 10:13:07;;;;;;;1.00;0.90;;;;;;;;;;5025991;28;20030;-84
2022/12/31 10:15:57;;;;;;;1.10;0.90;;;;;;;;;;5025345;28;20045;-84
2022/12/31 10:19:07;;;;;;;2.22;0.80;;;;;;;;;;5026533;28;20049;-86
2022/12/31 10:21:57;;;;;;;1.17;0.82;;;;;;;;;;4993765;28;20043;-85
2022/12/31 10:24:47;;;;;;;0.98;0.60;;;;;;;;;;5010518;28;20038;-86
2022/12/31 10:27:26;;;;;;;0.75;0.70;;;;;;;;;;5028019;28;20091;-85
2022/12/31 10:29:57;;;;;;;1.58;1.00;;;;;;;;;;5026048;28;20042;-84
2022/12/31 10:32:28;;;;;;;2.13;0.93;;;;;;;;;;5005109;28;20038;-83
2022/12/31 10:35:09;;;;;;;1.50;0.80;;;;;;;;;;5022773;28;20096;-82
2022/12/31 10:37:47;;;;;;;1.40;0.90;;;;;;;;;;5023858;28;20042;-83
2022/12/31 10:40:54;;;;;;;1.10;0.80;;;;;;;;;;5006867;28;20048;-85
2022/12/31 10:43:35;;;;;;;1.67;0.80;;;;;;;;;;5020930;28;20037;-84
2022/12/31 10:46:00;;;;;;;1.17;0.85;;;;;;;;;;5020906;28;20037;-84
2022/12/31 10:49:04;;;;;;;2.30;1.10;;;;;;;;;;5021387;28;20041;-83
2022/12/31 10:51:46;;;;;;;2.40;1.13;;;;;;;;;;5019247;28;20042;-83
2022/12/31 10:54:27;;;;;;;2.33;1.17;;;;;;;;;;5021478;28;20033;-83
2022/12/31 10:57:15;;;;;;;2.90;1.30;;;;;;;;;;5022014;28;20096;-85
2022/12/31 11:00:00;;;;;;;3.17;1.40;;;;;;;;;;5023217;28;20026;-84
2022/12/31 11:02:53;;;;;;;4.55;1.33;;;;;;;;;;5003287;28;20513;-86
2022/12/31 11:05:44;;;;;;;3.00;1.05;;;;;;;;;;5021187;28;20045;-85
2022/12/31 11:08:30;;;;;;;2.05;1.05;;;;;;;;;;5005453;28;20041;-84
2022/12/31 11:11:11;;;;;;;1.23;0.82;;;;;;;;;;5018245;28;20492;-85
2022/12/31 11:14:06;;;;;;;1.95;0.88;;;;;;;;;;5034599;23;20492;-88
2022/12/31 11:17:09;;;;;;;1.98;0.90;;;;;;;;;;4967695;28;20047;-87
2022/12/31 11:19:53;;;;;;;1.30;0.90;;;;;;;;;;4991963;28;20037;-87
2022/12/31 11:22:30;;;;;;;;;;;;;;;;;;4993335;28;20049;-86
2022/12/31 11:25:03;;;;;;;2.13;1.20;;;;;;;;;;4992471;28;19973;-86
2022/12/31 11:27:43;;;;;;;4.82;1.10;;;;;;;;;;4992515;28;20173;-87
2022/12/31 11:30:46;;;;;;;1.33;0.82;;;;;;;;;;4991558;28;20487;-85
2022/12/31 11:33:39;;;;;;;1.30;0.80;;;;;;;;;;5008424;28;20034;-87
2022/12/31 11:36:14;;;;;;;2.57;1.53;;;;;;;;;;4991273;28;20533;-86
2022/12/31 11:38:51;;;;;;;2.55;1.17;;;;;;;;;;4993173;28;20049;-85
2022/12/31 11:41:41;;;;;;;1.98;1.50;;;;;;;;;;4992055;28;20046;-87
2022/12/31 11:44:25;;;;;;;2.30;0.90;;;;;;;;;;4992450;28;20053;-86
2022/12/31 11:47:02;;;;;;;1.45;0.90;;;;;;;;;;4993385;28;20042;-86
2022/12/31 11:49:47;;;;;;;1.40;0.90;;;;;;;;;;4993099;28;20538;-88
2022/12/31 11:52:39;;;;;;;1.13;0.82;;;;;;;;;;5008622;28;20041;-84
2022/12/31 11:55:27;;;;;;;1.33;0.90;;;;;;;;;;4991512;28;20034;-87
2022/12/31 11:57:57;;;;;;;1.65;0.80;;;;;;;;;;5002798;28;20105;-86
2022/12/31 12:00:25;;;;;;;1.75;1.05;;;;;;;;;;4993718;28;20384;-87
2022/12/31 12:03:01;;;;;;;3.05;1.10;;;;;;;;;;4994502;28;20056;-86
2022/12/31 12:05:27;;;;;;;2.20;1.42;;;;;;;;;;4992337;28;20038;-86
2022/12/31 12:07:53;;;;;;;2.15;1.20;;;;;;;;;;4991812;28;20029;-87
2022/12/31 12:10:35;;;;;;;2.55;1.30;;;;;;;;;;4991433;28;20046;-85
2022/12/31 12:13:20;;;;;;;3.50;1.45;;;;;;;;;;4991979;28;20066;-85
2022/12/31 12:15:55;;;;;;;2.15;1.50;;;;;;;;;;4996240;28;20057;-86
2022/12/31 12:18:45;;;;;;;3.10;1.30;;;;;;;;;;4995065;28;20491;-85
2022/12/31 12:21:12;;;;;;;2.50;1.00;;;;;;;;;;4992866;28;20033;-85
2022/12/31 12:23:39;;;;;;;3.38;1.40;;;;;;;;;;4992566;28;20056;-85
2022/12/31 12:26:05;;;;;;;2.80;1.40;;;;;;;;;;4990591;28;20038;-85
2022/12/31 12:28:43;;;;;;;3.15;1.10;;;;;;;;;;4992841;28;20041;-85
2022/12/31 12:31:22;;;;;;;1.15;0.90;;;;;;;;;;4993064;28;20042;-85
2022/12/31 12:33:50;;;;;;;1.38;0.98;;;;;;;;;;4992713;28;20031;-86
2022/12/31 12:36:17;;;;;;;2.17;1.00;;;;;;;;;;4992364;28;20038;-86
2022/12/31 12:38:43;;;;;;;2.83;1.13;;;;;;;;;;4992573;28;20518;-85
2022/12/31 12:41:17;;;;;;;1.65;0.90;;;;;;;;;;4991802;28;20026;-84
2022/12/31 12:43:43;;;;;;;1.45;0.85;;;;;;;;;;4991081;28;20042;-85
2022/12/31 12:46:30;;;;;;;2.22;0.90;;;;;;;;;;4991752;28;20133;-85
2022/12/31 12:48:57;;;;;;;1.02;0.68;;;;;;;;;;4992599;28;20038;-86
2022/12/31 12:51:25;;;;;;;2.35;0.90;;;;;;;;;;4991425;28;20038;-86
2022/12/31 12:54:09;;;;;;;2.38;1.00;;;;;;;;;;4991510;28;20037;-86
2022/12/31 12:56:54;;;;;;;;;;;;;;;;;;4992055;28;20038;-85
2022/12/31 12:59:48;;;;;;;1.42;0.98;;;;;;;;;;4980534;28;19913;-85
2022/12/31 13:02:35;;;;;;;1.58;0.85;;;;;;;;;;4992259;28;20041;-85
2022/12/31 13:05:04;;;;;;;4.18;1.20;;;;;;;;;;4991270;28;20495;-86
2022/12/31 13:07:41;;;;;;;1.80;1.20;;;;;;;;;;4997323;28;20078;-86
2022/12/31 13:10:24;;;;;;;3.00;1.80;;;;;;;;;;5004109;28;20551;-84
2022/12/31 13:13:21;;;;;;;2.22;1.23;;;;;;;;;;4996812;28;20038;-87
2022/12/31 13:15:58;;;;;;;2.20;1.20;;;;;;;;;;5003748;28;20038;-86
2022/12/31 13:18:24;;;;;;;3.95;1.10;;;;;;;;;;4994892;28;20034;-85
2022/12/31 13:20:58;;;;;;;1.60;1.05;;;;;;;;;;4996105;28;20406;-85
2022/12/31 13:23:32;;;;;;;2.20;1.38;;;;;;;;;;4994755;28;20027;-86
2022/12/31 13:26:22;;;;;;;2.50;1.48;;;;;;;;;;4994350;28;20498;-86
2022/12/31 13:28:51;;;;;;;1.33;1.10;;;;;;;;;;4993393;28;20089;-86
2022/12/31 13:31:22;;;;;;;4.63;1.33;;;;;;;;;;4994430;28;20034;-87
2022/12/31 13:33:54;;;;;;;2.13;1.10;;;;;;;;;;4998883;28;20022;-86
2022/12/31 13:36:23;;;;;;;2.58;1.00;;;;;;;;;;4977278;28;20546;-85
2022/12/31 13:38:54;;;;;;;2.20;0.90;;;;;;;;;;4995020;28;20030;-86
2022/12/31 13:41:29;;;;;;;2.22;1.10;;;;;;;;;;4994694;28;20034;-86
2022/12/31 13:44:02;;;;;;;1.83;0.98;;;;;;;;;;4993835;28;20049;-88
2022/12/31 13:46:47;;;;;;;1.15;0.90;;;;;;;;;;4994426;28;20430;-86
2022/12/31 13:49:57;;;;;;;2.05;1.30;;;;;;;;;;4994115;28;20038;-88
2022/12/31 13:52:40;;;;;;;1.55;1.00;;;;;;;;;;4993023;28;20411;-85
2022/12/31 13:55:27;;;;;;;2.25;1.40;;;;;;;;;;5005827;28;20126;-87
2022/12/31 13:58:30;;;;;;;3.30;1.60;;;;;;;;;;4995140;28;20130;-86
2022/12/31 14:01:18;;;;;;;2.38;1.50;;;;;;;;;;4994539;28;20042;-86
2022/12/31 14:03:53;;;;;;;2.22;1.10;;;;;;;;;;4993086;28;20648;-87
2022/12/31 14:06:27;;;;;;;2.00;1.35;;;;;;;;;;4993167;28;20065;-86
2022/12/31 14:08:53;;;;;;;2.35;1.40;;;;;;;;;;4995969;28;20520;-85
2022/12/31 14:11:21;;;;;;;3.53;1.60;;;;;;;;;;4996085;28;20516;-85
2022/12/31 14:14:12;;;;;;;2.75;1.50;;;;;;;;;;4992146;28;20033;-88
2022/12/31 14:16:50;;;;;;;3.28;1.58;;;;;;;;;;5001749;28;20388;-87
2022/12/31 14:19:36;;;;;;;2.05;1.40;;;;;;;;;;4988900;28;20102;-87
2022/12/31 14:22:05;;;;;;;2.47;1.70;;;;;;;;;;4995681;28;20034;-86
2022/12/31 14:24:36;;;;;;;2.67;1.52;;;;;;;;;;4995189;28;20034;-87
2022/12/31 14:27:07;;;;;;;2.83;1.60;;;;;;;;;;4994878;28;20034;-87
2022/12/31 14:29:44;;;;;;;3.50;2.25;;;;;;;;;;5009470;28;20037;-88
2022/12/31 14:32:31;;;;;;;2.67;1.45;;;;;;;;;;4993316;28;20034;-86
2022/12/31 14:35:22;;;;;;;2.20;1.60;;;;;;;;;;4977787;28;20129;-88
2022/12/31 14:37:59;;;;;;;2.42;1.40;;;;;;;;;;4997745;28;20052;-89
2022/12/31 14:41:06;;;;;;;2.38;1.45;;;;;;;;;;4995104;28;20038;-87
2022/12/31 14:43:44;;;;;;;3.80;1.50;;;;;;;;;;4952906;29;20027;-88
2022/12/31 14:46:37;;;;;;;2.28;1.20;;;;;;;;;;4984680;28;20073;-87
2022/12/31 14:49:28;;;;;;;2.13;1.20;;;;;;;;;;4976457;28;20514;-87
2022/12/31 14:51:53;;;;;;;2.80;1.25;;;;;;;;;;4993939;28;20118;-88
2022/12/31 14:54:35;;;;;;;2.20;1.35;;;;;;;;;;4993195;28;20480;-87
2022/12/31 14:57:16;;;;;;;2.45;1.30;;;;;;;;;;4992509;28;20431;-87
2022/12/31 15:00:18;;;;;;;3.25;1.30;;;;;;;;;;4992119;28;20451;-88
2022/12/31 15:02:48;;;;;;;3.83;1.40;;;;;;;;;;4993068;28;20042;-87
2022/12/31 15:05:18;;;;;;;1.75;1.30;;;;;;;;;;4975449;28;20106;-87
2022/12/31 15:08:10;;;;;;;2.55;1.50;;;;;;;;;;4993919;28;20454;-85
2022/12/31 15:10:45;;;;;;;1.95;1.38;;;;;;;;;;4990746;28;20038;-86
2022/12/31 15:13:29;;;;;;;2.58;1.40;;;;;;;;;;4993439;28;20507;-86
2022/12/31 15:16:09;;;;;;;2.60;1.40;;;;;;;;;;5002230;28;20045;-87
2022/12/31 15:18:44;;;;;;;2.75;1.58;;;;;;;;;;4993329;28;20042;-87
2022/12/31 15:21:15;;;;;;;3.05;1.60;;;;;;;;;;4992865;28;20065;-88
2022/12/31 15:23:42;;;;;;;3.25;1.95;;;;;;;;;;5007328;28;20039;-87
2022/12/31 15:26:30;;;;;;;5.63;1.70;;;;;;;;;;4991836;28;20053;-87
2022/12/31 15:29:18;;;;;;;2.95;1.52;;;;;;;;;;4994087;28;20038;-86
2022/12/31 15:31:46;;;;;;;3.55;1.75;;;;;;;;;;5003491;28;20196;-87
2022/12/31 15:34:32;;;;;;;2.90;1.55;;;;;;;;;;4992337;28;20080;-86
2022/12/31 15:37:01;;;;;;;2.88;1.45;;;;;;;;;;5007911;28;20579;-87
2022/12/31 15:39:30;;;;;;;3.00;1.50;;;;;;;;;;4995088;28;20041;-88
2022/12/31 15:41:56;;;;;;;2.40;1.60;;;;;;;;;;4994521;28;20561;-85